TAF Text Data
IDs:
Format:
Raw Decoded Include METAR

Data at: 1237 UTC 19 Feb 2020

KMRB 191120Z 1912/2012 31009KT P6SM SCT250
  FM191400 31011G18KT P6SM FEW250
  FM192000 31012KT P6SM FEW250
  FM200200 32006KT P6SM FEW250
  FM200600 32004KT P6SM BKN200